sensor_id;sensor_type;location;lat;lon;timestamp;pressure;altitude;pressure_sealevel;temperature;humidity
72548;BME280;60570;50.848;6.776;2024-03-17T00:00:03;101298.81;;;11.68;68.60
72548;BME280;60570;50.848;6.776;2024-03-17T00:01:08;101299.63;;;11.69;68.54
72548;BME280;60570;50.848;6.776;2024-03-17T00:02:09;101297.97;;;11.68;68.46
72548;BME280;60570;50.848;6.776;2024-03-17T00:03:09;101299.97;;;11.67;68.61
72548;BME280;60570;50.848;6.776;2024-03-17T00:04:12;101290.47;;;11.68;68.67
72548;BME280;60570;50.848;6.776;2024-03-17T00:05:12;101297.19;;;11.67;68.65
72548;BME280;60570;50.848;6.776;2024-03-17T00:06:13;101294.41;;;11.67;68.55
72548;BME280;60570;50.848;6.776;2024-03-17T00:07:14;101285.22;;;11.67;68.50
72548;BME280;60570;50.848;6.776;2024-03-17T00:08:16;101285.22;;;11.67;68.77
72548;BME280;60570;50.848;6.776;2024-03-17T00:09:16;101285.56;;;11.65;68.44
72548;BME280;60570;50.848;6.776;2024-03-17T00:10:18;101287.19;;;11.66;68.61
72548;BME280;60570;50.848;6.776;2024-03-17T00:11:19;101285.56;;;11.65;68.37
72548;BME280;60570;50.848;6.776;2024-03-17T00:12:20;101288.00;;;11.67;68.45
72548;BME280;60570;50.848;6.776;2024-03-17T00:13:21;101287.47;;;11.65;68.49
72548;BME280;60570;50.848;6.776;2024-03-17T00:14:22;101289.97;;;11.66;68.46
72548;BME280;60570;50.848;6.776;2024-03-17T00:15:24;101287.19;;;11.66;68.44
72548;BME280;60570;50.848;6.776;2024-03-17T00:16:26;101281.09;;;11.64;68.76
72548;BME280;60570;50.848;6.776;2024-03-17T00:17:26;101279.47;;;11.63;68.50
72548;BME280;60570;50.848;6.776;2024-03-17T00:18:27;101283.03;;;11.64;68.52
72548;BME280;60570;50.848;6.776;2024-03-17T00:19:29;101283.38;;;11.62;68.42
72548;BME280;60570;50.848;6.776;2024-03-17T00:20:30;101278.63;;;11.63;68.35
72548;BME280;60570;50.848;6.776;2024-03-17T00:21:32;101278.63;;;11.63;68.55
72548;BME280;60570;50.848;6.776;2024-03-17T00:22:33;101277.81;;;11.62;68.34
72548;BME280;60570;50.848;6.776;2024-03-17T00:23:37;101282.25;;;11.63;68.50
72548;BME280;60570;50.848;6.776;2024-03-17T00:24:38;101265.06;;;11.61;68.36
72548;BME280;60570;50.848;6.776;2024-03-17T00:25:39;101276.19;;;11.61;68.30
72548;BME280;60570;50.848;6.776;2024-03-17T00:26:41;101270.63;;;11.61;68.48
72548;BME280;60570;50.848;6.776;2024-03-17T00:27:41;101269.47;;;11.62;68.60
72548;BME280;60570;50.848;6.776;2024-03-17T00:28:45;101274.19;;;11.62;68.29
72548;BME280;60570;50.848;6.776;2024-03-17T00:29:50;101272.56;;;11.61;68.49
72548;BME280;60570;50.848;6.776;2024-03-17T00:30:51;101272.56;;;11.61;68.40
72548;BME280;60570;50.848;6.776;2024-03-17T00:31:53;101273.69;;;11.60;68.34
72548;BME280;60570;50.848;6.776;2024-03-17T00:32:54;101272.56;;;11.61;68.31
72548;BME280;60570;50.848;6.776;2024-03-17T00:33:57;101273.41;;;11.61;68.61
72548;BME280;60570;50.848;6.776;2024-03-17T00:34:58;101273.41;;;11.61;68.42
72548;BME280;60570;50.848;6.776;2024-03-17T00:35:59;101270.63;;;11.61;68.12
72548;BME280;60570;50.848;6.776;2024-03-17T00:37:00;101274.19;;;11.62;68.30
72548;BME280;60570;50.848;6.776;2024-03-17T00:38:03;101275.34;;;11.61;68.29
72548;BME280;60570;50.848;6.776;2024-03-17T00:39:10;101270.63;;;11.61;68.18
72548;BME280;60570;50.848;6.776;2024-03-17T00:40:11;101268.97;;;11.60;68.40
72548;BME280;60570;50.848;6.776;2024-03-17T00:41:13;101270.13;;;11.59;68.38
72548;BME280;60570;50.848;6.776;2024-03-17T00:42:14;101272.56;;;11.61;68.36
72548;BME280;60570;50.848;6.776;2024-03-17T00:43:14;101268.97;;;11.60;68.16
72548;BME280;60570;50.848;6.776;2024-03-17T00:44:15;101268.13;;;11.60;68.28
72548;BME280;60570;50.848;6.776;2024-03-17T00:45:17;101267.34;;;11.59;68.23
72548;BME280;60570;50.848;6.776;2024-03-17T00:46:18;101268.47;;;11.58;68.18
72548;BME280;60570;50.848;6.776;2024-03-17T00:47:20;101266.50;;;11.59;68.11
72548;BME280;60570;50.848;6.776;2024-03-17T00:48:21;101262.91;;;11.58;68.12
72548;BME280;60570;50.848;6.776;2024-03-17T00:49:22;101264.88;;;11.58;68.35
72548;BME280;60570;50.848;6.776;2024-03-17T00:50:23;101263.22;;;11.57;68.33
72548;BME280;60570;50.848;6.776;2024-03-17T00:51:24;101270.44;;;11.58;68.35
72548;BME280;60570;50.848;6.776;2024-03-17T00:52:24;101269.63;;;11.57;68.31
72548;BME280;60570;50.848;6.776;2024-03-17T00:53:27;101262.41;;;11.56;68.27
72548;BME280;60570;50.848;6.776;2024-03-17T00:54:29;101264.38;;;11.56;68.32
72548;BME280;60570;50.848;6.776;2024-03-17T00:55:30;101265.19;;;11.56;68.19
72548;BME280;60570;50.848;6.776;2024-03-17T00:56:32;101258.00;;;11.55;67.94
72548;BME280;60570;50.848;6.776;2024-03-17T00:57:33;101262.72;;;11.55;68.14
72548;BME280;60570;50.848;6.776;2024-03-17T00:58:34;101256.34;;;11.54;68.26
72548;BME280;60570;50.848;6.776;2024-03-17T00:59:35;101267.47;;;11.54;68.11
72548;BME280;60570;50.848;6.776;2024-03-17T01:00:36;101248.31;;;11.53;68.03
72548;BME280;60570;50.848;6.776;2024-03-17T01:01:37;101258.63;;;11.52;68.18
72548;BME280;60570;50.848;6.776;2024-03-17T01:02:39;101252.75;;;11.54;68.10
72548;BME280;60570;50.848;6.776;2024-03-17T01:03:40;101257.50;;;11.53;67.98
72548;BME280;60570;50.848;6.776;2024-03-17T01:04:41;101256.66;;;11.53;68.49
72548;BME280;60570;50.848;6.776;2024-03-17T01:05:42;101257.50;;;11.53;68.16
72548;BME280;60570;50.848;6.776;2024-03-17T01:06:45;101253.88;;;11.53;68.15
72548;BME280;60570;50.848;6.776;2024-03-17T01:07:46;101251.44;;;11.51;68.29
72548;BME280;60570;50.848;6.776;2024-03-17T01:08:48;101246.38;;;11.53;68.13
72548;BME280;60570;50.848;6.776;2024-03-17T01:09:52;101253.88;;;11.53;68.32
72548;BME280;60570;50.848;6.776;2024-03-17T01:10:52;101253.06;;;11.52;68.10
72548;BME280;60570;50.848;6.776;2024-03-17T01:11:53;101255.84;;;11.52;68.03
72548;BME280;60570;50.848;6.776;2024-03-17T01:12:54;101255.84;;;11.52;68.01
72548;BME280;60570;50.848;6.776;2024-03-17T01:13:55;101248.66;;;11.51;67.89
72548;BME280;60570;50.848;6.776;2024-03-17T01:14:56;101248.97;;;11.50;68.03
72548;BME280;60570;50.848;6.776;2024-03-17T01:15:57;101248.97;;;11.50;68.10
72548;BME280;60570;50.848;6.776;2024-03-17T01:16:59;101248.16;;;11.49;68.05
72548;BME280;60570;50.848;6.776;2024-03-17T01:18:01;101252.06;;;11.48;68.11
72548;BME280;60570;50.848;6.776;2024-03-17T01:19:02;101242.59;;;11.49;68.28
72548;BME280;60570;50.848;6.776;2024-03-17T01:20:03;101252.56;;;11.50;68.40
72548;BME280;60570;50.848;6.776;2024-03-17T01:21:05;101249.28;;;11.48;67.93
72548;BME280;60570;50.848;6.776;2024-03-17T01:22:06;101248.50;;;11.48;68.29
72548;BME280;60570;50.848;6.776;2024-03-17T01:23:07;101245.72;;;11.48;68.04
72548;BME280;60570;50.848;6.776;2024-03-17T01:24:08;101247.31;;;11.49;67.77
72548;BME280;60570;50.848;6.776;2024-03-17T01:25:09;101245.72;;;11.48;68.17
72548;BME280;60570;50.848;6.776;2024-03-17T01:26:10;101251.56;;;11.46;68.01
72548;BME280;60570;50.848;6.776;2024-03-17T01:27:11;101247.66;;;11.47;68.01
72548;BME280;60570;50.848;6.776;2024-03-17T01:28:16;101243.56;;;11.45;68.18
72548;BME280;60570;50.848;6.776;2024-03-17T01:29:17;101243.22;;;11.46;68.12
72548;BME280;60570;50.848;6.776;2024-03-17T01:30:17;101233.25;;;11.45;67.86
72548;BME280;60570;50.848;6.776;2024-03-17T01:31:19;101231.59;;;11.44;68.02
72548;BME280;60570;50.848;6.776;2024-03-17T01:32:21;101228.81;;;11.44;68.08
72548;BME280;60570;50.848;6.776;2024-03-17T01:33:23;101230.78;;;11.44;68.16
72548;BME280;60570;50.848;6.776;2024-03-17T01:34:23;101228.34;;;11.42;68.03
72548;BME280;60570;50.848;6.776;2024-03-17T01:35:24;101224.75;;;11.42;67.91
72548;BME280;60570;50.848;6.776;2024-03-17T01:36:26;101219.19;;;11.42;67.98
72548;BME280;60570;50.848;6.776;2024-03-17T01:37:26;101219.50;;;11.40;68.10
72548;BME280;60570;50.848;6.776;2024-03-17T01:38:27;101219.50;;;11.40;68.02
72548;BME280;60570;50.848;6.776;2024-03-17T01:39:30;101220.63;;;11.39;68.12
72548;BME280;60570;50.848;6.776;2024-03-17T01:40:31;101223.41;;;11.39;67.99
72548;BME280;60570;50.848;6.776;2024-03-17T01:41:32;101220.13;;;11.37;67.79
72548;BME280;60570;50.848;6.776;2024-03-17T01:42:33;101223.75;;;11.38;68.04
72548;BME280;60570;50.848;6.776;2024-03-17T01:43:35;101227.66;;;11.37;67.91
72548;BME280;60570;50.848;6.776;2024-03-17T01:44:35;101216.84;;;11.35;68.08
72548;BME280;60570;50.848;6.776;2024-03-17T01:45:36;101222.91;;;11.37;67.77
72548;BME280;60570;50.848;6.776;2024-03-17T01:46:37;101219.63;;;11.35;68.07
72548;BME280;60570;50.848;6.776;2024-03-17T01:47:38;101228.47;;;11.37;68.01
72548;BME280;60570;50.848;6.776;2024-03-17T01:48:41;101220.78;;;11.34;67.88
72548;BME280;60570;50.848;6.776;2024-03-17T01:49:42;101221.59;;;11.35;68.08
72548;BME280;60570;50.848;6.776;2024-03-17T01:50:43;101221.59;;;11.35;67.80
72548;BME280;60570;50.848;6.776;2024-03-17T01:51:46;101215.22;;;11.34;67.97
72548;BME280;60570;50.848;6.776;2024-03-17T01:52:48;101220.78;;;11.34;67.83
72548;BME280;60570;50.848;6.776;2024-03-17T01:53:49;101217.19;;;11.34;67.71
72548;BME280;60570;50.848;6.776;2024-03-17T01:54:51;101217.19;;;11.34;67.71
72548;BME280;60570;50.848;6.776;2024-03-17T01:55:53;101204.91;;;11.35;67.78
72548;BME280;60570;50.848;6.776;2024-03-17T01:56:55;101208.34;;;11.32;67.85
72548;BME280;60570;50.848;6.776;2024-03-17T01:57:56;101208.34;;;11.32;68.00
72548;BME280;60570;50.848;6.776;2024-03-17T01:58:58;101207.50;;;11.31;67.51
72548;BME280;60570;50.848;6.776;2024-03-17T02:00:00;101206.69;;;11.31;67.94
72548;BME280;60570;50.848;6.776;2024-03-17T02:01:01;101215.03;;;11.31;67.71
72548;BME280;60570;50.848;6.776;2024-03-17T02:02:04;101214.56;;;11.29;67.92
72548;BME280;60570;50.848;6.776;2024-03-17T02:03:06;101207.03;;;11.29;67.84
72548;BME280;60570;50.848;6.776;2024-03-17T02:04:10;101214.56;;;11.29;68.19
72548;BME280;60570;50.848;6.776;2024-03-17T02:05:12;101218.16;;;11.29;67.78
72548;BME280;60570;50.848;6.776;2024-03-17T02:06:14;101216.53;;;11.28;67.99
72548;BME280;60570;50.848;6.776;2024-03-17T02:07:14;101220.44;;;11.27;68.01
72548;BME280;60570;50.848;6.776;2024-03-17T02:08:16;101215.19;;;11.26;67.87
72548;BME280;60570;50.848;6.776;2024-03-17T02:09:18;101215.19;;;11.26;67.99
72548;BME280;60570;50.848;6.776;2024-03-17T02:10:19;101216.03;;;11.26;68.19
72548;BME280;60570;50.848;6.776;2024-03-17T02:11:25;101216.34;;;11.25;68.06
72548;BME280;60570;50.848;6.776;2024-03-17T02:12:26;101219.13;;;11.25;67.99
72548;BME280;60570;50.848;6.776;2024-03-17T02:13:28;101217.47;;;11.24;67.85
72548;BME280;60570;50.848;6.776;2024-03-17T02:14:28;101214.69;;;11.24;67.83
72548;BME280;60570;50.848;6.776;2024-03-17T02:15:29;101214.69;;;11.24;67.82
72548;BME280;60570;50.848;6.776;2024-03-17T02:16:31;101218.63;;;11.23;67.80
72548;BME280;60570;50.848;6.776;2024-03-17T02:17:32;101207.50;;;11.23;67.76
72548;BME280;60570;50.848;6.776;2024-03-17T02:18:33;101211.41;;;11.22;68.12
72548;BME280;60570;50.848;6.776;2024-03-17T02:19:36;101203.06;;;11.22;67.82
72548;BME280;60570;50.848;6.776;2024-03-17T02:20:37;101210.28;;;11.23;67.98
72548;BME280;60570;50.848;6.776;2024-03-17T02:21:58;101205.53;;;11.23;67.86
72548;BME280;60570;50.848;6.776;2024-03-17T02:23:01;101193.91;;;11.21;67.63
72548;BME280;60570;50.848;6.776;2024-03-17T02:24:02;101196.69;;;11.21;67.97
72548;BME280;60570;50.848;6.776;2024-03-17T02:25:03;101201.94;;;11.23;67.80
72548;BME280;60570;50.848;6.776;2024-03-17T02:26:08;101210.28;;;11.23;67.85
72548;BME280;60570;50.848;6.776;2024-03-17T02:27:09;101210.28;;;11.23;67.48
72548;BME280;60570;50.848;6.776;2024-03-17T02:28:10;101201.44;;;11.21;67.65
72548;BME280;60570;50.848;6.776;2024-03-17T02:29:10;101207.00;;;11.21;67.95
72548;BME280;60570;50.848;6.776;2024-03-17T02:30:12;101206.50;;;11.19;67.88
72548;BME280;60570;50.848;6.776;2024-03-17T02:31:14;101207.31;;;11.19;67.58
72548;BME280;60570;50.848;6.776;2024-03-17T02:32:16;101212.88;;;11.19;67.74
72548;BME280;60570;50.848;6.776;2024-03-17T02:33:17;101218.44;;;11.19;67.82
72548;BME280;60570;50.848;6.776;2024-03-17T02:34:20;101206.81;;;11.17;67.80
72548;BME280;60570;50.848;6.776;2024-03-17T02:35:21;101207.63;;;11.18;67.99
72548;BME280;60570;50.848;6.776;2024-03-17T02:36:22;101209.59;;;11.17;67.58
72548;BME280;60570;50.848;6.776;2024-03-17T02:37:23;101211.25;;;11.18;67.74
72548;BME280;60570;50.848;6.776;2024-03-17T02:38:26;101212.88;;;11.19;67.86
72548;BME280;60570;50.848;6.776;2024-03-17T02:39:42;101208.47;;;11.18;67.82
72548;BME280;60570;50.848;6.776;2024-03-17T02:40:42;101205.69;;;11.18;67.76
72548;BME280;60570;50.848;6.776;2024-03-17T02:41:43;101211.25;;;11.18;67.43
72548;BME280;60570;50.848;6.776;2024-03-17T02:42:46;101215.97;;;11.18;67.93
72548;BME280;60570;50.848;6.776;2024-03-17T02:43:47;101214.34;;;11.17;67.92
72548;BME280;60570;50.848;6.776;2024-03-17T02:44:49;101219.09;;;11.16;67.71
72548;BME280;60570;50.848;6.776;2024-03-17T02:45:50;101211.91;;;11.15;67.70
72548;BME280;60570;50.848;6.776;2024-03-17T02:46:50;101210.25;;;11.14;67.71
72548;BME280;60570;50.848;6.776;2024-03-17T02:47:52;101207.47;;;11.14;67.97
72548;BME280;60570;50.848;6.776;2024-03-17T02:48:53;101213.88;;;11.15;67.83
72548;BME280;60570;50.848;6.776;2024-03-17T02:49:55;101204.69;;;11.14;67.69
72548;BME280;60570;50.848;6.776;2024-03-17T02:50:56;101210.25;;;11.14;67.72
72548;BME280;60570;50.848;6.776;2024-03-17T02:51:56;101202.75;;;11.15;67.62
72548;BME280;60570;50.848;6.776;2024-03-17T02:53:00;101191.63;;;11.15;67.72
72548;BME280;60570;50.848;6.776;2024-03-17T02:54:04;101192.75;;;11.14;67.64
72548;BME280;60570;50.848;6.776;2024-03-17T02:55:06;101194.22;;;11.11;67.69
72548;BME280;60570;50.848;6.776;2024-03-17T02:56:07;101189.78;;;11.10;67.74
72548;BME280;60570;50.848;6.776;2024-03-17T02:57:09;101193.41;;;11.11;67.71
72548;BME280;60570;50.848;6.776;2024-03-17T02:58:10;101191.75;;;11.10;67.59
72548;BME280;60570;50.848;6.776;2024-03-17T02:59:11;101191.75;;;11.10;67.78
72548;BME280;60570;50.848;6.776;2024-03-17T03:00:13;101199.28;;;11.09;67.56
72548;BME280;60570;50.848;6.776;2024-03-17T03:01:14;101195.69;;;11.09;67.75
72548;BME280;60570;50.848;6.776;2024-03-17T03:02:15;101187.66;;;11.07;67.83
72548;BME280;60570;50.848;6.776;2024-03-17T03:03:17;101194.03;;;11.08;67.77
72548;BME280;60570;50.848;6.776;2024-03-17T03:04:18;101192.41;;;11.07;67.91
72548;BME280;60570;50.848;6.776;2024-03-17T03:05:20;101189.63;;;11.07;67.68
72548;BME280;60570;50.848;6.776;2024-03-17T03:06:21;101186.84;;;11.07;67.71
72548;BME280;60570;50.848;6.776;2024-03-17T03:07:23;101189.63;;;11.07;67.65
72548;BME280;60570;50.848;6.776;2024-03-17T03:08:24;101188.78;;;11.06;67.78
72548;BME280;60570;50.848;6.776;2024-03-17T03:09:26;101195.50;;;11.05;67.45
72548;BME280;60570;50.848;6.776;2024-03-17T03:10:31;101198.59;;;11.04;67.42
72548;BME280;60570;50.848;6.776;2024-03-17T03:11:32;101200.25;;;11.05;67.82
72548;BME280;60570;50.848;6.776;2024-03-17T03:12:34;101200.56;;;11.03;67.47
72548;BME280;60570;50.848;6.776;2024-03-17T03:13:35;101197.78;;;11.03;67.48
72548;BME280;60570;50.848;6.776;2024-03-17T03:14:36;101195.63;;;11.00;67.72
72548;BME280;60570;50.848;6.776;2024-03-17T03:15:37;101194.84;;;11.00;67.53
72548;BME280;60570;50.848;6.776;2024-03-17T03:16:38;101193.34;;;11.02;67.68
72548;BME280;60570;50.848;6.776;2024-03-17T03:17:40;101188.47;;;10.99;67.47
72548;BME280;60570;50.848;6.776;2024-03-17T03:18:41;101188.47;;;10.99;67.71
72548;BME280;60570;50.848;6.776;2024-03-17T03:19:44;101192.34;;;10.98;67.60
72548;BME280;60570;50.848;6.776;2024-03-17T03:20:50;101191.56;;;10.98;67.54
72548;BME280;60570;50.848;6.776;2024-03-17T03:21:51;101193.50;;;10.97;67.86
72548;BME280;60570;50.848;6.776;2024-03-17T03:22:52;101184.34;;;10.97;67.91
72548;BME280;60570;50.848;6.776;2024-03-17T03:23:53;101181.56;;;10.97;67.72
72548;BME280;60570;50.848;6.776;2024-03-17T03:24:56;101182.72;;;10.96;67.77
72548;BME280;60570;50.848;6.776;2024-03-17T03:25:57;101191.38;;;10.94;67.84
72548;BME280;60570;50.848;6.776;2024-03-17T03:26:59;101181.91;;;10.95;67.73
72548;BME280;60570;50.848;6.776;2024-03-17T03:28:00;101188.28;;;10.96;67.69
72548;BME280;60570;50.848;6.776;2024-03-17T03:29:03;101189.41;;;10.95;67.43
72548;BME280;60570;50.848;6.776;2024-03-17T03:30:05;101190.25;;;10.95;67.72
72548;BME280;60570;50.848;6.776;2024-03-17T03:31:11;101194.13;;;10.94;67.42
72548;BME280;60570;50.848;6.776;2024-03-17T03:32:13;101199.41;;;10.96;67.59
72548;BME280;60570;50.848;6.776;2024-03-17T03:33:15;101200.53;;;10.95;67.55
72548;BME280;60570;50.848;6.776;2024-03-17T03:34:16;101196.91;;;10.94;67.39
72548;BME280;60570;50.848;6.776;2024-03-17T03:35:18;101201.69;;;10.94;67.72
72548;BME280;60570;50.848;6.776;2024-03-17T03:36:18;101198.91;;;10.94;67.67
72548;BME280;60570;50.848;6.776;2024-03-17T03:37:21;101206.41;;;10.93;67.84
72548;BME280;60570;50.848;6.776;2024-03-17T03:38:22;101191.69;;;10.93;67.71
72548;BME280;60570;50.848;6.776;2024-03-17T03:39:24;101202.47;;;10.94;67.75
72548;BME280;60570;50.848;6.776;2024-03-17T03:40:28;101194.47;;;10.93;67.66
72548;BME280;60570;50.848;6.776;2024-03-17T03:41:29;101200.03;;;10.93;67.60
72548;BME280;60570;50.848;6.776;2024-03-17T03:42:31;101195.63;;;10.92;67.56
72548;BME280;60570;50.848;6.776;2024-03-17T03:43:32;101196.41;;;10.92;67.72
72548;BME280;60570;50.848;6.776;2024-03-17T03:44:33;101202.81;;;10.93;67.57
72548;BME280;60570;50.848;6.776;2024-03-17T03:45:35;101199.19;;;10.92;67.28
72548;BME280;60570;50.848;6.776;2024-03-17T03:46:36;101192.00;;;10.91;67.40
72548;BME280;60570;50.848;6.776;2024-03-17T03:47:38;101191.50;;;10.89;67.70
72548;BME280;60570;50.848;6.776;2024-03-17T03:48:38;101188.41;;;10.91;67.45
72548;BME280;60570;50.848;6.776;2024-03-17T03:49:39;101194.28;;;10.89;67.32
72548;BME280;60570;50.848;6.776;2024-03-17T03:50:41;101180.41;;;10.89;67.35
72548;BME280;60570;50.848;6.776;2024-03-17T03:51:42;101183.19;;;10.89;67.65
72548;BME280;60570;50.848;6.776;2024-03-17T03:52:43;101189.06;;;10.88;67.37
72548;BME280;60570;50.848;6.776;2024-03-17T03:53:45;101190.69;;;10.89;67.21
72548;BME280;60570;50.848;6.776;2024-03-17T03:54:47;101182.69;;;10.87;67.42
72548;BME280;60570;50.848;6.776;2024-03-17T03:55:49;101187.41;;;10.87;67.33
72548;BME280;60570;50.848;6.776;2024-03-17T03:56:50;101185.78;;;10.86;67.49
72548;BME280;60570;50.848;6.776;2024-03-17T03:57:51;101185.78;;;10.86;67.58
72548;BME280;60570;50.848;6.776;2024-03-17T03:58:53;101185.78;;;10.86;67.66
72548;BME280;60570;50.848;6.776;2024-03-17T03:59:54;101183.00;;;10.86;67.65
72548;BME280;60570;50.848;6.776;2024-03-17T04:00:55;101188.91;;;10.84;67.37
72548;BME280;60570;50.848;6.776;2024-03-17T04:01:56;101184.97;;;10.85;67.36
72548;BME280;60570;50.848;6.776;2024-03-17T04:02:59;101186.13;;;10.84;67.59
72548;BME280;60570;50.848;6.776;2024-03-17T04:04:02;101184.13;;;10.84;67.58
72548;BME280;60570;50.848;6.776;2024-03-17T04:05:04;101178.06;;;10.82;67.40
72548;BME280;60570;50.848;6.776;2024-03-17T04:06:06;101175.28;;;10.82;67.33
72548;BME280;60570;50.848;6.776;2024-03-17T04:07:08;101180.84;;;10.82;67.55
72548;BME280;60570;50.848;6.776;2024-03-17T04:08:09;101185.63;;;10.82;67.42
72548;BME280;60570;50.848;6.776;2024-03-17T04:09:10;101175.28;;;10.82;67.51
72548;BME280;60570;50.848;6.776;2024-03-17T04:10:11;101170.88;;;10.81;67.54
72548;BME280;60570;50.848;6.776;2024-03-17T04:11:14;101167.28;;;10.81;67.31
72548;BME280;60570;50.848;6.776;2024-03-17T04:12:16;101168.44;;;10.80;67.29
72548;BME280;60570;50.848;6.776;2024-03-17T04:13:17;101166.47;;;10.80;67.54
72548;BME280;60570;50.848;6.776;2024-03-17T04:14:19;101162.06;;;10.79;67.30
72548;BME280;60570;50.848;6.776;2024-03-17T04:15:20;101172.34;;;10.79;67.41
72548;BME280;60570;50.848;6.776;2024-03-17T04:16:21;101170.38;;;10.79;67.51
72548;BME280;60570;50.848;6.776;2024-03-17T04:17:23;101171.50;;;10.78;67.53
72548;BME280;60570;50.848;6.776;2024-03-17T04:18:24;101169.88;;;10.77;67.40
72548;BME280;60570;50.848;6.776;2024-03-17T04:19:26;101169.88;;;10.77;67.65
72548;BME280;60570;50.848;6.776;2024-03-17T04:20:26;101169.56;;;10.79;67.29
72548;BME280;60570;50.848;6.776;2024-03-17T04:21:28;101177.06;;;10.78;67.41
72548;BME280;60570;50.848;6.776;2024-03-17T04:22:29;101166.78;;;10.79;67.61
72548;BME280;60570;50.848;6.776;2024-03-17T04:23:31;101161.56;;;10.77;67.38
72548;BME280;60570;50.848;6.776;2024-03-17T04:24:32;101160.72;;;10.77;67.52
72548;BME280;60570;50.848;6.776;2024-03-17T04:25:33;101167.13;;;10.77;67.49
72548;BME280;60570;50.848;6.776;2024-03-17T04:26:36;101159.09;;;10.76;67.57
72548;BME280;60570;50.848;6.776;2024-03-17T04:27:36;101161.06;;;10.75;67.34
72548;BME280;60570;50.848;6.776;2024-03-17T04:28:38;101156.63;;;10.74;67.48
72548;BME280;60570;50.848;6.776;2024-03-17T04:29:39;101159.41;;;10.74;67.42
72548;BME280;60570;50.848;6.776;2024-03-17T04:30:41;101165.78;;;10.75;67.36
72548;BME280;60570;50.848;6.776;2024-03-17T04:31:43;101161.06;;;10.75;67.42
72548;BME280;60570;50.848;6.776;2024-03-17T04:32:49;101163.84;;;10.75;67.34
72548;BME280;60570;50.848;6.776;2024-03-17T04:33:50;101162.19;;;10.74;67.67
72548;BME280;60570;50.848;6.776;2024-03-17T04:34:52;101161.72;;;10.72;67.53
72548;BME280;60570;50.848;6.776;2024-03-17T04:35:53;101156.16;;;10.72;67.63
72548;BME280;60570;50.848;6.776;2024-03-17T04:36:53;101151.38;;;10.73;67.50
72548;BME280;60570;50.848;6.776;2024-03-17T04:37:55;101150.25;;;10.74;67.53
72548;BME280;60570;50.848;6.776;2024-03-17T04:38:57;101149.44;;;10.73;67.42
72548;BME280;60570;50.848;6.776;2024-03-17T04:39:59;101148.63;;;10.73;67.16
72548;BME280;60570;50.848;6.776;2024-03-17T04:41:02;101155.31;;;10.72;67.57
72548;BME280;60570;50.848;6.776;2024-03-17T04:42:10;101147.81;;;10.72;67.30
72548;BME280;60570;50.848;6.776;2024-03-17T04:43:11;101142.25;;;10.72;67.41
72548;BME280;60570;50.848;6.776;2024-03-17T04:44:12;101147.00;;;10.72;67.63
72548;BME280;60570;50.848;6.776;2024-03-17T04:45:13;101145.03;;;10.72;67.43
72548;BME280;60570;50.848;6.776;2024-03-17T04:46:15;101141.44;;;10.72;67.33
72548;BME280;60570;50.848;6.776;2024-03-17T04:47:16;101141.44;;;10.72;67.38
72548;BME280;60570;50.848;6.776;2024-03-17T04:48:17;101149.75;;;10.72;67.31
72548;BME280;60570;50.848;6.776;2024-03-17T04:49:18;101141.75;;;10.70;67.65
72548;BME280;60570;50.848;6.776;2024-03-17T04:50:20;101141.44;;;10.72;67.33
72548;BME280;60570;50.848;6.776;2024-03-17T04:51:21;101138.97;;;10.70;67.10
72548;BME280;60570;50.848;6.776;2024-03-17T04:52:23;101146.50;;;10.70;67.48
72548;BME280;60570;50.848;6.776;2024-03-17T04:53:24;101140.94;;;10.70;67.30
72548;BME280;60570;50.848;6.776;2024-03-17T04:54:25;101132.91;;;10.68;67.21
72548;BME280;60570;50.848;6.776;2024-03-17T04:55:26;101131.78;;;10.69;67.43
72548;BME280;60570;50.848;6.776;2024-03-17T04:56:29;101138.47;;;10.68;67.27
72548;BME280;60570;50.848;6.776;2024-03-17T04:57:31;101134.53;;;10.69;67.41
72548;BME280;60570;50.848;6.776;2024-03-17T04:58:32;101130.94;;;10.69;67.24
72548;BME280;60570;50.848;6.776;2024-03-17T04:59:35;101135.69;;;10.68;67.32
72548;BME280;60570;50.848;6.776;2024-03-17T05:00:35;101133.72;;;10.69;67.38
72548;BME280;60570;50.848;6.776;2024-03-17T05:01:37;101141.56;;;10.67;67.12
72548;BME280;60570;50.848;6.776;2024-03-17T05:02:38;101132.41;;;10.66;67.51
72548;BME280;60570;50.848;6.776;2024-03-17T05:03:40;101131.59;;;10.66;67.47
72548;BME280;60570;50.848;6.776;2024-03-17T05:04:41;101132.72;;;10.65;67.16
72548;BME280;60570;50.848;6.776;2024-03-17T05:05:42;101130.44;;;10.67;67.44
72548;BME280;60570;50.848;6.776;2024-03-17T05:06:44;101130.78;;;10.65;67.33
72548;BME280;60570;50.848;6.776;2024-03-17T05:07:46;101124.38;;;10.65;67.27
72548;BME280;60570;50.848;6.776;2024-03-17T05:08:48;101124.38;;;10.65;67.17
72548;BME280;60570;50.848;6.776;2024-03-17T05:09:48;101128.31;;;10.64;67.33
72548;BME280;60570;50.848;6.776;2024-03-17T05:10:56;101123.59;;;10.64;67.31
72548;BME280;60570;50.848;6.776;2024-03-17T05:11:57;101125.53;;;10.64;67.14
72548;BME280;60570;50.848;6.776;2024-03-17T05:13:00;101127.50;;;10.63;67.22
72548;BME280;60570;50.848;6.776;2024-03-17T05:14:00;101132.72;;;10.65;67.14
72548;BME280;60570;50.848;6.776;2024-03-17T05:15:03;101129.16;;;10.64;67.35
72548;BME280;60570;50.848;6.776;2024-03-17T05:16:06;101131.91;;;10.64;67.18
72548;BME280;60570;50.848;6.776;2024-03-17T05:17:07;101127.50;;;10.63;67.20
72548;BME280;60570;50.848;6.776;2024-03-17T05:18:08;101135.00;;;10.63;67.21
72548;BME280;60570;50.848;6.776;2024-03-17T05:19:09;101134.50;;;10.61;67.22
72548;BME280;60570;50.848;6.776;2024-03-17T05:20:11;101140.88;;;10.61;67.12
72548;BME280;60570;50.848;6.776;2024-03-17T05:21:13;101138.09;;;10.61;67.16
72548;BME280;60570;50.848;6.776;2024-03-17T05:22:15;101139.25;;;10.60;67.10